sensor_id;sensor_type;location;lat;lon;timestamp;P1;durP1;ratioP1;P2;durP2;ratioP2
10226;SDS011;15634;48.766;2.272;2022-10-03T00:01:24;18.60;;;10.43;;
10226;SDS011;15634;48.766;2.272;2022-10-03T00:03:59;19.48;;;10.85;;
10226;SDS011;15634;48.766;2.272;2022-10-03T00:06:39;16.42;;;9.43;;
10226;SDS011;15634;48.766;2.272;2022-10-03T00:09:13;17.40;;;10.02;;
10226;SDS011;15634;48.766;2.272;2022-10-03T00:11:53;17.17;;;11.15;;
10226;SDS011;15634;48.766;2.272;2022-10-03T00:14:30;19.75;;;10.35;;
10226;SDS011;15634;48.766;2.272;2022-10-03T00:17:03;17.17;;;10.07;;
10226;SDS011;15634;48.766;2.272;2022-10-03T00:19:34;18.58;;;10.18;;
10226;SDS011;15634;48.766;2.272;2022-10-03T00:24:41;19.08;;;10.60;;
10226;SDS011;15634;48.766;2.272;2022-10-03T00:27:14;17.83;;;9.10;;
10226;SDS011;15634;48.766;2.272;2022-10-03T00:30:00;16.52;;;9.95;;
10226;SDS011;15634;48.766;2.272;2022-10-03T00:32:43;16.08;;;9.18;;
10226;SDS011;15634;48.766;2.272;2022-10-03T00:35:19;15.95;;;9.13;;
10226;SDS011;15634;48.766;2.272;2022-10-03T00:37:57;18.27;;;10.07;;
10226;SDS011;15634;48.766;2.272;2022-10-03T00:40:41;14.52;;;9.00;;
10226;SDS011;15634;48.766;2.272;2022-10-03T00:46:38;15.93;;;9.40;;
10226;SDS011;15634;48.766;2.272;2022-10-03T00:52:14;15.85;;;9.18;;
10226;SDS011;15634;48.766;2.272;2022-10-03T00:54:53;16.73;;;8.73;;
10226;SDS011;15634;48.766;2.272;2022-10-03T00:57:34;16.15;;;9.57;;
10226;SDS011;15634;48.766;2.272;2022-10-03T01:00:14;15.27;;;9.00;;
10226;SDS011;15634;48.766;2.272;2022-10-03T01:02:46;17.17;;;9.75;;
10226;SDS011;15634;48.766;2.272;2022-10-03T01:05:24;16.58;;;8.85;;
10226;SDS011;15634;48.766;2.272;2022-10-03T01:08:07;14.80;;;9.18;;
10226;SDS011;15634;48.766;2.272;2022-10-03T01:11:03;15.98;;;8.85;;
10226;SDS011;15634;48.766;2.272;2022-10-03T01:13:36;18.07;;;9.10;;
10226;SDS011;15634;48.766;2.272;2022-10-03T01:16:11;18.83;;;9.80;;
10226;SDS011;15634;48.766;2.272;2022-10-03T01:18:45;19.65;;;8.88;;
10226;SDS011;15634;48.766;2.272;2022-10-03T01:21:18;18.42;;;9.43;;
10226;SDS011;15634;48.766;2.272;2022-10-03T01:23:59;18.58;;;9.23;;
10226;SDS011;15634;48.766;2.272;2022-10-03T01:26:53;19.30;;;8.57;;
10226;SDS011;15634;48.766;2.272;2022-10-03T01:29:28;15.82;;;9.00;;
10226;SDS011;15634;48.766;2.272;2022-10-03T01:32:21;16.95;;;8.77;;
10226;SDS011;15634;48.766;2.272;2022-10-03T01:34:53;15.10;;;8.65;;
10226;SDS011;15634;48.766;2.272;2022-10-03T01:37:28;14.65;;;8.35;;
10226;SDS011;15634;48.766;2.272;2022-10-03T01:39:59;11.25;;;7.90;;
10226;SDS011;15634;48.766;2.272;2022-10-03T01:42:36;17.35;;;8.65;;
10226;SDS011;15634;48.766;2.272;2022-10-03T01:45:13;15.38;;;8.75;;
10226;SDS011;15634;48.766;2.272;2022-10-03T01:47:43;16.48;;;8.27;;
10226;SDS011;15634;48.766;2.272;2022-10-03T01:50:17;19.30;;;8.73;;
10226;SDS011;15634;48.766;2.272;2022-10-03T01:52:50;16.60;;;9.07;;
10226;SDS011;15634;48.766;2.272;2022-10-03T01:55:19;13.05;;;7.95;;
10226;SDS011;15634;48.766;2.272;2022-10-03T01:57:50;16.45;;;8.63;;
10226;SDS011;15634;48.766;2.272;2022-10-03T02:00:22;15.25;;;8.45;;
10226;SDS011;15634;48.766;2.272;2022-10-03T02:02:51;15.48;;;8.48;;
10226;SDS011;15634;48.766;2.272;2022-10-03T02:05:27;16.10;;;8.43;;
10226;SDS011;15634;48.766;2.272;2022-10-03T02:08:04;14.68;;;8.50;;
10226;SDS011;15634;48.766;2.272;2022-10-03T02:10:34;15.88;;;8.18;;
10226;SDS011;15634;48.766;2.272;2022-10-03T02:13:07;16.00;;;7.45;;
10226;SDS011;15634;48.766;2.272;2022-10-03T02:15:46;14.52;;;8.20;;
10226;SDS011;15634;48.766;2.272;2022-10-03T02:18:22;15.68;;;7.88;;
10226;SDS011;15634;48.766;2.272;2022-10-03T02:20:57;14.90;;;8.27;;
10226;SDS011;15634;48.766;2.272;2022-10-03T02:23:38;13.75;;;8.30;;
10226;SDS011;15634;48.766;2.272;2022-10-03T02:28:58;15.20;;;7.72;;
10226;SDS011;15634;48.766;2.272;2022-10-03T02:31:43;17.92;;;8.32;;
10226;SDS011;15634;48.766;2.272;2022-10-03T02:34:31;15.93;;;8.30;;
10226;SDS011;15634;48.766;2.272;2022-10-03T02:40:37;13.70;;;8.13;;
10226;SDS011;15634;48.766;2.272;2022-10-03T02:46:46;15.93;;;8.15;;
10226;SDS011;15634;48.766;2.272;2022-10-03T02:49:49;15.80;;;8.23;;
10226;SDS011;15634;48.766;2.272;2022-10-03T02:53:04;13.93;;;7.75;;
10226;SDS011;15634;48.766;2.272;2022-10-03T02:56:19;16.02;;;8.27;;
10226;SDS011;15634;48.766;2.272;2022-10-03T03:05:43;14.32;;;8.02;;
10226;SDS011;15634;48.766;2.272;2022-10-03T03:08:35;13.32;;;7.90;;
10226;SDS011;15634;48.766;2.272;2022-10-03T03:11:50;13.73;;;8.40;;
10226;SDS011;15634;48.766;2.272;2022-10-03T03:17:25;14.90;;;8.25;;
10226;SDS011;15634;48.766;2.272;2022-10-03T03:20:09;15.73;;;8.25;;
10226;SDS011;15634;48.766;2.272;2022-10-03T03:23:02;16.23;;;7.78;;
10226;SDS011;15634;48.766;2.272;2022-10-03T03:25:45;15.13;;;7.80;;
10226;SDS011;15634;48.766;2.272;2022-10-03T03:28:27;18.33;;;8.40;;
10226;SDS011;15634;48.766;2.272;2022-10-03T03:31:02;13.40;;;8.02;;
10226;SDS011;15634;48.766;2.272;2022-10-03T03:33:34;15.75;;;8.48;;
10226;SDS011;15634;48.766;2.272;2022-10-03T03:36:18;15.00;;;8.00;;
10226;SDS011;15634;48.766;2.272;2022-10-03T03:38:57;14.73;;;8.45;;
10226;SDS011;15634;48.766;2.272;2022-10-03T03:41:31;14.65;;;8.35;;
10226;SDS011;15634;48.766;2.272;2022-10-03T03:44:10;13.02;;;8.05;;
10226;SDS011;15634;48.766;2.272;2022-10-03T03:46:56;17.00;;;8.25;;
10226;SDS011;15634;48.766;2.272;2022-10-03T03:49:30;14.75;;;7.88;;
10226;SDS011;15634;48.766;2.272;2022-10-03T03:52:12;15.65;;;8.25;;
10226;SDS011;15634;48.766;2.272;2022-10-03T04:00:27;17.90;;;9.27;;
10226;SDS011;15634;48.766;2.272;2022-10-03T04:03:01;21.40;;;10.98;;
10226;SDS011;15634;48.766;2.272;2022-10-03T04:05:40;15.48;;;9.05;;
10226;SDS011;15634;48.766;2.272;2022-10-03T04:08:22;19.60;;;9.45;;
10226;SDS011;15634;48.766;2.272;2022-10-03T04:10:57;19.67;;;10.65;;
10226;SDS011;15634;48.766;2.272;2022-10-03T04:13:35;18.90;;;10.65;;
10226;SDS011;15634;48.766;2.272;2022-10-03T04:16:16;17.30;;;10.32;;
10226;SDS011;15634;48.766;2.272;2022-10-03T04:19:05;19.20;;;10.30;;
10226;SDS011;15634;48.766;2.272;2022-10-03T04:21:39;21.83;;;10.70;;
10226;SDS011;15634;48.766;2.272;2022-10-03T04:24:33;25.15;;;11.10;;
10226;SDS011;15634;48.766;2.272;2022-10-03T04:27:20;30.20;;;12.18;;
10226;SDS011;15634;48.766;2.272;2022-10-03T04:29:59;38.10;;;12.75;;
10226;SDS011;15634;48.766;2.272;2022-10-03T04:32:33;38.28;;;12.20;;
10226;SDS011;15634;48.766;2.272;2022-10-03T04:38:05;40.60;;;13.32;;
10226;SDS011;15634;48.766;2.272;2022-10-03T04:40:44;35.72;;;14.05;;
10226;SDS011;15634;48.766;2.272;2022-10-03T04:43:17;63.42;;;14.23;;
10226;SDS011;15634;48.766;2.272;2022-10-03T04:45:55;54.85;;;14.63;;
10226;SDS011;15634;48.766;2.272;2022-10-03T04:48:28;47.28;;;14.13;;
10226;SDS011;15634;48.766;2.272;2022-10-03T04:51:02;78.03;;;15.52;;
10226;SDS011;15634;48.766;2.272;2022-10-03T04:53:36;103.88;;;14.95;;
10226;SDS011;15634;48.766;2.272;2022-10-03T04:56:15;27.17;;;12.32;;
10226;SDS011;15634;48.766;2.272;2022-10-03T04:58:49;76.00;;;13.68;;
10226;SDS011;15634;48.766;2.272;2022-10-03T05:01:22;50.63;;;13.80;;
10226;SDS011;15634;48.766;2.272;2022-10-03T05:03:52;70.53;;;13.82;;
10226;SDS011;15634;48.766;2.272;2022-10-03T05:06:30;65.57;;;13.77;;
10226;SDS011;15634;48.766;2.272;2022-10-03T05:09:01;45.22;;;13.15;;
10226;SDS011;15634;48.766;2.272;2022-10-03T05:11:44;69.90;;;12.98;;
10226;SDS011;15634;48.766;2.272;2022-10-03T05:14:16;60.80;;;12.75;;
10226;SDS011;15634;48.766;2.272;2022-10-03T05:16:47;36.83;;;11.73;;
10226;SDS011;15634;48.766;2.272;2022-10-03T05:19:27;73.95;;;12.00;;
10226;SDS011;15634;48.766;2.272;2022-10-03T05:22:07;42.78;;;12.70;;
10226;SDS011;15634;48.766;2.272;2022-10-03T05:24:42;31.63;;;11.40;;
10226;SDS011;15634;48.766;2.272;2022-10-03T05:27:14;38.65;;;12.68;;
10226;SDS011;15634;48.766;2.272;2022-10-03T05:29:50;47.92;;;11.43;;
10226;SDS011;15634;48.766;2.272;2022-10-03T05:32:24;75.45;;;13.10;;
10226;SDS011;15634;48.766;2.272;2022-10-03T05:34:59;25.67;;;12.35;;
10226;SDS011;15634;48.766;2.272;2022-10-03T05:37:41;48.92;;;12.60;;
10226;SDS011;15634;48.766;2.272;2022-10-03T05:40:19;23.33;;;11.90;;
10226;SDS011;15634;48.766;2.272;2022-10-03T05:42:56;29.63;;;12.57;;
10226;SDS011;15634;48.766;2.272;2022-10-03T05:45:27;36.65;;;12.73;;
10226;SDS011;15634;48.766;2.272;2022-10-03T05:48:09;82.75;;;14.20;;
10226;SDS011;15634;48.766;2.272;2022-10-03T05:53:58;32.25;;;13.25;;
10226;SDS011;15634;48.766;2.272;2022-10-03T05:56:53;49.03;;;13.98;;
10226;SDS011;15634;48.766;2.272;2022-10-03T06:02:34;28.15;;;12.45;;
10226;SDS011;15634;48.766;2.272;2022-10-03T06:05:29;31.77;;;13.85;;
10226;SDS011;15634;48.766;2.272;2022-10-03T06:08:04;107.28;;;15.13;;
10226;SDS011;15634;48.766;2.272;2022-10-03T06:10:46;27.55;;;12.00;;
10226;SDS011;15634;48.766;2.272;2022-10-03T06:13:18;32.80;;;11.50;;
10226;SDS011;15634;48.766;2.272;2022-10-03T06:15:52;34.00;;;10.75;;
10226;SDS011;15634;48.766;2.272;2022-10-03T06:18:25;22.85;;;10.35;;
10226;SDS011;15634;48.766;2.272;2022-10-03T06:23:57;35.60;;;9.05;;
10226;SDS011;15634;48.766;2.272;2022-10-03T06:26:44;32.50;;;8.80;;
10226;SDS011;15634;48.766;2.272;2022-10-03T06:29:26;58.50;;;8.73;;
10226;SDS011;15634;48.766;2.272;2022-10-03T06:38:49;10.52;;;6.90;;
10226;SDS011;15634;48.766;2.272;2022-10-03T06:41:49;15.68;;;6.25;;
10226;SDS011;15634;48.766;2.272;2022-10-03T06:44:36;31.52;;;6.88;;
10226;SDS011;15634;48.766;2.272;2022-10-03T06:47:15;11.15;;;5.60;;
10226;SDS011;15634;48.766;2.272;2022-10-03T06:55:53;11.40;;;6.22;;
10226;SDS011;15634;48.766;2.272;2022-10-03T06:58:40;9.35;;;6.03;;
10226;SDS011;15634;48.766;2.272;2022-10-03T07:04:21;8.85;;;5.50;;
10226;SDS011;15634;48.766;2.272;2022-10-03T07:07:06;10.88;;;5.60;;
10226;SDS011;15634;48.766;2.272;2022-10-03T07:09:57;14.15;;;6.25;;
10226;SDS011;15634;48.766;2.272;2022-10-03T07:12:37;18.40;;;5.88;;
10226;SDS011;15634;48.766;2.272;2022-10-03T07:15:20;9.13;;;6.00;;
10226;SDS011;15634;48.766;2.272;2022-10-03T07:18:04;14.73;;;7.80;;
10226;SDS011;15634;48.766;2.272;2022-10-03T07:20:57;12.30;;;7.32;;
10226;SDS011;15634;48.766;2.272;2022-10-03T07:23:47;19.25;;;6.95;;
10226;SDS011;15634;48.766;2.272;2022-10-03T07:32:33;12.48;;;7.60;;
10226;SDS011;15634;48.766;2.272;2022-10-03T07:38:55;14.82;;;7.68;;
10226;SDS011;15634;48.766;2.272;2022-10-03T07:42:03;11.40;;;6.45;;
10226;SDS011;15634;48.766;2.272;2022-10-03T07:47:38;13.53;;;7.70;;
10226;SDS011;15634;48.766;2.272;2022-10-03T07:50:23;10.95;;;7.22;;
10226;SDS011;15634;48.766;2.272;2022-10-03T07:53:05;11.33;;;7.17;;
10226;SDS011;15634;48.766;2.272;2022-10-03T07:55:48;11.60;;;6.93;;
10226;SDS011;15634;48.766;2.272;2022-10-03T07:58:27;10.30;;;6.05;;
10226;SDS011;15634;48.766;2.272;2022-10-03T08:01:15;13.57;;;7.13;;
10226;SDS011;15634;48.766;2.272;2022-10-03T08:03:55;11.73;;;7.32;;
10226;SDS011;15634;48.766;2.272;2022-10-03T08:06:40;13.98;;;7.07;;
10226;SDS011;15634;48.766;2.272;2022-10-03T08:09:35;12.05;;;6.70;;
10226;SDS011;15634;48.766;2.272;2022-10-03T08:12:32;13.93;;;7.95;;
10226;SDS011;15634;48.766;2.272;2022-10-03T08:15:08;13.50;;;7.47;;
10226;SDS011;15634;48.766;2.272;2022-10-03T08:20:45;13.05;;;8.32;;
10226;SDS011;15634;48.766;2.272;2022-10-03T08:26:28;12.48;;;8.32;;
10226;SDS011;15634;48.766;2.272;2022-10-03T08:29:13;13.77;;;8.73;;
10226;SDS011;15634;48.766;2.272;2022-10-03T08:35:22;15.13;;;8.75;;
10226;SDS011;15634;48.766;2.272;2022-10-03T08:38:17;13.65;;;8.13;;
10226;SDS011;15634;48.766;2.272;2022-10-03T08:44:14;13.75;;;7.45;;
10226;SDS011;15634;48.766;2.272;2022-10-03T08:47:05;14.43;;;8.07;;
10226;SDS011;15634;48.766;2.272;2022-10-03T08:49:54;13.32;;;7.97;;
10226;SDS011;15634;48.766;2.272;2022-10-03T08:52:33;14.10;;;8.40;;
10226;SDS011;15634;48.766;2.272;2022-10-03T08:58:26;15.07;;;8.35;;
10226;SDS011;15634;48.766;2.272;2022-10-03T09:01:27;16.35;;;9.60;;
10226;SDS011;15634;48.766;2.272;2022-10-03T09:04:22;14.43;;;8.50;;
10226;SDS011;15634;48.766;2.272;2022-10-03T09:07:27;15.60;;;8.68;;
10226;SDS011;15634;48.766;2.272;2022-10-03T09:10:19;17.90;;;9.75;;
10226;SDS011;15634;48.766;2.272;2022-10-03T09:16:06;17.92;;;9.85;;
10226;SDS011;15634;48.766;2.272;2022-10-03T09:18:50;17.55;;;9.50;;
10226;SDS011;15634;48.766;2.272;2022-10-03T09:31:02;19.70;;;9.93;;
10226;SDS011;15634;48.766;2.272;2022-10-03T09:39:57;17.73;;;9.73;;
10226;SDS011;15634;48.766;2.272;2022-10-03T09:42:47;18.00;;;10.40;;
10226;SDS011;15634;48.766;2.272;2022-10-03T09:45:53;17.52;;;9.50;;
10226;SDS011;15634;48.766;2.272;2022-10-03T09:48:35;18.55;;;10.38;;
10226;SDS011;15634;48.766;2.272;2022-10-03T09:51:19;16.63;;;10.70;;
10226;SDS011;15634;48.766;2.272;2022-10-03T10:00:19;14.80;;;9.32;;
10226;SDS011;15634;48.766;2.272;2022-10-03T10:02:56;16.38;;;10.30;;
10226;SDS011;15634;48.766;2.272;2022-10-03T10:05:49;17.27;;;9.20;;
10226;SDS011;15634;48.766;2.272;2022-10-03T10:12:04;16.15;;;9.70;;
10226;SDS011;15634;48.766;2.272;2022-10-03T10:14:39;20.42;;;11.45;;
10226;SDS011;15634;48.766;2.272;2022-10-03T10:20:19;17.63;;;10.50;;
10226;SDS011;15634;48.766;2.272;2022-10-03T10:23:06;15.13;;;9.23;;
10226;SDS011;15634;48.766;2.272;2022-10-03T10:28:49;15.00;;;9.32;;
10226;SDS011;15634;48.766;2.272;2022-10-03T10:31:46;15.73;;;8.90;;
10226;SDS011;15634;48.766;2.272;2022-10-03T10:38:06;14.30;;;9.05;;
10226;SDS011;15634;48.766;2.272;2022-10-03T10:41:31;15.38;;;9.27;;
10226;SDS011;15634;48.766;2.272;2022-10-03T10:47:38;16.02;;;9.40;;
10226;SDS011;15634;48.766;2.272;2022-10-03T10:50:49;15.95;;;9.57;;
10226;SDS011;15634;48.766;2.272;2022-10-03T10:57:05;17.10;;;10.25;;
10226;SDS011;15634;48.766;2.272;2022-10-03T11:12:23;16.63;;;9.73;;
10226;SDS011;15634;48.766;2.272;2022-10-03T11:17:59;13.60;;;9.27;;
10226;SDS011;15634;48.766;2.272;2022-10-03T11:27:15;13.35;;;8.80;;
10226;SDS011;15634;48.766;2.272;2022-10-03T11:30:03;14.63;;;8.95;;
10226;SDS011;15634;48.766;2.272;2022-10-03T11:35:52;13.35;;;9.45;;
10226;SDS011;15634;48.766;2.272;2022-10-03T11:38:53;15.52;;;9.40;;
10226;SDS011;15634;48.766;2.272;2022-10-03T11:41:30;18.30;;;11.20;;
10226;SDS011;15634;48.766;2.272;2022-10-03T11:44:12;15.20;;;9.18;;
10226;SDS011;15634;48.766;2.272;2022-10-03T11:49:47;18.70;;;9.90;;
10226;SDS011;15634;48.766;2.272;2022-10-03T11:52:28;14.73;;;9.00;;
10226;SDS011;15634;48.766;2.272;2022-10-03T11:55:01;16.67;;;9.50;;
10226;SDS011;15634;48.766;2.272;2022-10-03T11:57:32;17.58;;;10.02;;
10226;SDS011;15634;48.766;2.272;2022-10-03T12:00:03;17.75;;;10.13;;
10226;SDS011;15634;48.766;2.272;2022-10-03T12:02:37;15.60;;;9.90;;
10226;SDS011;15634;48.766;2.272;2022-10-03T12:05:18;16.42;;;8.75;;
10226;SDS011;15634;48.766;2.272;2022-10-03T12:07:52;16.33;;;8.98;;
10226;SDS011;15634;48.766;2.272;2022-10-03T12:10:45;14.65;;;9.48;;
10226;SDS011;15634;48.766;2.272;2022-10-03T12:13:16;13.20;;;8.73;;
10226;SDS011;15634;48.766;2.272;2022-10-03T12:15:46;16.85;;;9.18;;
10226;SDS011;15634;48.766;2.272;2022-10-03T12:18:15;15.95;;;9.68;;
10226;SDS011;15634;48.766;2.272;2022-10-03T12:20:59;16.90;;;9.77;;
10226;SDS011;15634;48.766;2.272;2022-10-03T12:23:35;17.58;;;9.98;;
10226;SDS011;15634;48.766;2.272;2022-10-03T12:26:14;16.90;;;9.95;;
10226;SDS011;15634;48.766;2.272;2022-10-03T12:28:43;18.60;;;10.02;;
10226;SDS011;15634;48.766;2.272;2022-10-03T12:31:13;13.82;;;8.80;;
10226;SDS011;15634;48.766;2.272;2022-10-03T12:33:47;14.25;;;9.52;;
10226;SDS011;15634;48.766;2.272;2022-10-03T12:36:17;15.07;;;8.98;;
10226;SDS011;15634;48.766;2.272;2022-10-03T12:38:51;14.65;;;9.55;;
10226;SDS011;15634;48.766;2.272;2022-10-03T12:41:24;18.40;;;9.82;;
10226;SDS011;15634;48.766;2.272;2022-10-03T12:44:15;16.73;;;9.63;;
10226;SDS011;15634;48.766;2.272;2022-10-03T12:46:50;18.23;;;9.20;;
10226;SDS011;15634;48.766;2.272;2022-10-03T12:51:51;13.52;;;9.40;;
10226;SDS011;15634;48.766;2.272;2022-10-03T12:54:33;15.02;;;9.32;;
10226;SDS011;15634;48.766;2.272;2022-10-03T12:57:13;16.98;;;9.63;;
10226;SDS011;15634;48.766;2.272;2022-10-03T13:00:04;11.63;;;8.05;;
10226;SDS011;15634;48.766;2.272;2022-10-03T13:02:34;14.40;;;8.25;;
10226;SDS011;15634;48.766;2.272;2022-10-03T13:05:20;12.43;;;8.77;;
10226;SDS011;15634;48.766;2.272;2022-10-03T13:07:53;12.98;;;8.25;;
10226;SDS011;15634;48.766;2.272;2022-10-03T13:10:26;15.50;;;9.20;;
10226;SDS011;15634;48.766;2.272;2022-10-03T13:13:01;11.50;;;8.05;;
10226;SDS011;15634;48.766;2.272;2022-10-03T13:15:41;14.75;;;8.20;;
10226;SDS011;15634;48.766;2.272;2022-10-03T13:18:22;12.27;;;7.70;;
10226;SDS011;15634;48.766;2.272;2022-10-03T13:20:58;12.50;;;8.10;;
10226;SDS011;15634;48.766;2.272;2022-10-03T13:23:30;15.10;;;8.77;;
10226;SDS011;15634;48.766;2.272;2022-10-03T13:26:06;12.30;;;7.85;;
10226;SDS011;15634;48.766;2.272;2022-10-03T13:28:36;16.17;;;8.27;;
10226;SDS011;15634;48.766;2.272;2022-10-03T13:31:12;13.15;;;8.35;;
10226;SDS011;15634;48.766;2.272;2022-10-03T13:33:43;10.65;;;7.68;;
10226;SDS011;15634;48.766;2.272;2022-10-03T13:36:13;12.70;;;8.02;;
10226;SDS011;15634;48.766;2.272;2022-10-03T13:38:50;12.10;;;7.68;;
10226;SDS011;15634;48.766;2.272;2022-10-03T13:41:29;10.35;;;7.90;;
10226;SDS011;15634;48.766;2.272;2022-10-03T13:44:00;13.85;;;7.20;;
10226;SDS011;15634;48.766;2.272;2022-10-03T13:46:36;16.63;;;7.88;;
10226;SDS011;15634;48.766;2.272;2022-10-03T13:49:12;13.15;;;8.10;;
10226;SDS011;15634;48.766;2.272;2022-10-03T13:54:12;14.43;;;6.93;;
10226;SDS011;15634;48.766;2.272;2022-10-03T13:56:44;11.98;;;7.32;;
10226;SDS011;15634;48.766;2.272;2022-10-03T14:02:11;9.90;;;6.85;;
10226;SDS011;15634;48.766;2.272;2022-10-03T14:04:53;14.77;;;7.70;;
10226;SDS011;15634;48.766;2.272;2022-10-03T14:07:26;12.43;;;7.13;;
10226;SDS011;15634;48.766;2.272;2022-10-03T14:10:08;12.35;;;7.70;;
10226;SDS011;15634;48.766;2.272;2022-10-03T14:12:45;10.50;;;6.75;;
10226;SDS011;15634;48.766;2.272;2022-10-03T14:15:20;10.15;;;6.50;;
10226;SDS011;15634;48.766;2.272;2022-10-03T14:18:05;11.18;;;7.53;;
10226;SDS011;15634;48.766;2.272;2022-10-03T14:20:40;10.70;;;6.75;;
10226;SDS011;15634;48.766;2.272;2022-10-03T14:24:00;11.50;;;7.43;;
10226;SDS011;15634;48.766;2.272;2022-10-03T14:26:32;15.18;;;7.57;;
10226;SDS011;15634;48.766;2.272;2022-10-03T14:29:04;10.45;;;7.13;;
10226;SDS011;15634;48.766;2.272;2022-10-03T14:31:34;10.88;;;7.72;;
10226;SDS011;15634;48.766;2.272;2022-10-03T14:34:05;10.27;;;7.25;;
10226;SDS011;15634;48.766;2.272;2022-10-03T14:36:38;10.95;;;7.00;;
10226;SDS011;15634;48.766;2.272;2022-10-03T14:39:20;14.47;;;7.77;;
10226;SDS011;15634;48.766;2.272;2022-10-03T14:42:15;10.40;;;6.90;;
10226;SDS011;15634;48.766;2.272;2022-10-03T14:44:52;12.77;;;7.20;;
10226;SDS011;15634;48.766;2.272;2022-10-03T14:47:20;12.52;;;7.00;;
10226;SDS011;15634;48.766;2.272;2022-10-03T14:49:48;9.98;;;6.60;;
10226;SDS011;15634;48.766;2.272;2022-10-03T14:52:22;12.15;;;7.15;;
10226;SDS011;15634;48.766;2.272;2022-10-03T14:54:52;11.90;;;6.90;;
10226;SDS011;15634;48.766;2.272;2022-10-03T14:57:23;10.07;;;7.25;;
10226;SDS011;15634;48.766;2.272;2022-10-03T14:59:55;10.10;;;6.63;;
10226;SDS011;15634;48.766;2.272;2022-10-03T15:02:25;12.15;;;6.90;;
10226;SDS011;15634;48.766;2.272;2022-10-03T15:04:55;10.43;;;7.13;;
10226;SDS011;15634;48.766;2.272;2022-10-03T15:07:32;12.07;;;7.40;;
10226;SDS011;15634;48.766;2.272;2022-10-03T15:10:01;12.35;;;6.93;;
10226;SDS011;15634;48.766;2.272;2022-10-03T15:12:30;11.43;;;6.75;;
10226;SDS011;15634;48.766;2.272;2022-10-03T15:15:00;10.60;;;7.20;;
10226;SDS011;15634;48.766;2.272;2022-10-03T15:17:29;10.60;;;7.03;;
10226;SDS011;15634;48.766;2.272;2022-10-03T15:19:58;10.13;;;6.45;;
10226;SDS011;15634;48.766;2.272;2022-10-03T15:22:30;10.60;;;6.95;;
10226;SDS011;15634;48.766;2.272;2022-10-03T15:25:02;9.75;;;6.60;;
10226;SDS011;15634;48.766;2.272;2022-10-03T15:27:31;9.52;;;6.35;;
10226;SDS011;15634;48.766;2.272;2022-10-03T15:30:01;9.10;;;6.47;;
10226;SDS011;15634;48.766;2.272;2022-10-03T15:32:31;9.30;;;6.25;;
10226;SDS011;15634;48.766;2.272;2022-10-03T15:35:00;10.85;;;6.43;;
10226;SDS011;15634;48.766;2.272;2022-10-03T15:37:28;10.45;;;5.97;;
10226;SDS011;15634;48.766;2.272;2022-10-03T15:40:02;11.75;;;6.50;;
10226;SDS011;15634;48.766;2.272;2022-10-03T15:42:40;9.45;;;5.90;;
10226;SDS011;15634;48.766;2.272;2022-10-03T15:45:15;12.50;;;6.75;;
10226;SDS011;15634;48.766;2.272;2022-10-03T15:47:44;12.05;;;6.75;;
10226;SDS011;15634;48.766;2.272;2022-10-03T15:50:12;13.02;;;6.97;;
10226;SDS011;15634;48.766;2.272;2022-10-03T15:52:45;11.75;;;6.70;;
10226;SDS011;15634;48.766;2.272;2022-10-03T15:55:15;11.07;;;6.63;;
10226;SDS011;15634;48.766;2.272;2022-10-03T15:57:45;11.20;;;5.95;;
10226;SDS011;15634;48.766;2.272;2022-10-03T16:00:20;9.30;;;6.50;;
10226;SDS011;15634;48.766;2.272;2022-10-03T16:02:49;13.45;;;6.82;;
10226;SDS011;15634;48.766;2.272;2022-10-03T16:05:21;9.95;;;6.40;;
10226;SDS011;15634;48.766;2.272;2022-10-03T16:07:51;11.35;;;6.55;;
10226;SDS011;15634;48.766;2.272;2022-10-03T16:10:23;9.50;;;6.15;;
10226;SDS011;15634;48.766;2.272;2022-10-03T16:12:59;12.63;;;7.03;;
10226;SDS011;15634;48.766;2.272;2022-10-03T16:15:32;10.25;;;6.65;;
10226;SDS011;15634;48.766;2.272;2022-10-03T16:18:05;15.48;;;6.90;;
10226;SDS011;15634;48.766;2.272;2022-10-03T16:20:36;13.63;;;7.13;;
10226;SDS011;15634;48.766;2.272;2022-10-03T16:23:08;12.05;;;6.28;;
10226;SDS011;15634;48.766;2.272;2022-10-03T16:25:41;13.40;;;6.80;;
10226;SDS011;15634;48.766;2.272;2022-10-03T16:28:11;11.35;;;6.97;;
10226;SDS011;15634;48.766;2.272;2022-10-03T16:30:42;13.98;;;7.15;;
10226;SDS011;15634;48.766;2.272;2022-10-03T16:33:14;11.45;;;6.57;;
10226;SDS011;15634;48.766;2.272;2022-10-03T16:35:42;13.32;;;7.22;;
10226;SDS011;15634;48.766;2.272;2022-10-03T16:38:15;11.00;;;6.60;;
10226;SDS011;15634;48.766;2.272;2022-10-03T16:40:51;15.50;;;7.25;;
10226;SDS011;15634;48.766;2.272;2022-10-03T16:43:19;12.68;;;7.18;;
10226;SDS011;15634;48.766;2.272;2022-10-03T16:45:46;13.20;;;7.32;;
10226;SDS011;15634;48.766;2.272;2022-10-03T16:48:16;12.20;;;7.10;;
10226;SDS011;15634;48.766;2.272;2022-10-03T16:51:02;12.65;;;6.78;;
10226;SDS011;15634;48.766;2.272;2022-10-03T16:53:29;11.48;;;7.15;;
10226;SDS011;15634;48.766;2.272;2022-10-03T16:55:58;14.63;;;7.38;;
10226;SDS011;15634;48.766;2.272;2022-10-03T16:58:31;11.82;;;6.85;;
10226;SDS011;15634;48.766;2.272;2022-10-03T17:01:00;11.88;;;6.85;;
10226;SDS011;15634;48.766;2.272;2022-10-03T17:03:28;16.20;;;8.05;;
10226;SDS011;15634;48.766;2.272;2022-10-03T17:06:01;11.38;;;7.18;;
10226;SDS011;15634;48.766;2.272;2022-10-03T17:08:31;13.00;;;7.57;;
10226;SDS011;15634;48.766;2.272;2022-10-03T17:11:03;14.90;;;8.23;;
10226;SDS011;15634;48.766;2.272;2022-10-03T17:13:35;13.52;;;7.90;;
10226;SDS011;15634;48.766;2.272;2022-10-03T17:16:07;12.50;;;7.60;;
10226;SDS011;15634;48.766;2.272;2022-10-03T17:18:39;18.65;;;9.93;;
10226;SDS011;15634;48.766;2.272;2022-10-03T17:21:12;16.58;;;9.98;;
10226;SDS011;15634;48.766;2.272;2022-10-03T17:23:45;22.17;;;10.02;;
10226;SDS011;15634;48.766;2.272;2022-10-03T17:26:18;16.20;;;9.93;;
10226;SDS011;15634;48.766;2.272;2022-10-03T17:28:53;15.23;;;9.68;;
10226;SDS011;15634;48.766;2.272;2022-10-03T17:31:24;18.70;;;9.43;;
10226;SDS011;15634;48.766;2.272;2022-10-03T17:33:55;17.25;;;10.18;;
10226;SDS011;15634;48.766;2.272;2022-10-03T17:39:32;15.02;;;9.07;;
10226;SDS011;15634;48.766;2.272;2022-10-03T17:42:06;19.10;;;9.35;;
10226;SDS011;15634;48.766;2.272;2022-10-03T17:44:37;16.27;;;9.45;;
10226;SDS011;15634;48.766;2.272;2022-10-03T17:47:11;14.90;;;10.32;;
10226;SDS011;15634;48.766;2.272;2022-10-03T17:49:48;15.35;;;10.82;;
10226;SDS011;15634;48.766;2.272;2022-10-03T17:52:16;16.55;;;10.88;;
10226;SDS011;15634;48.766;2.272;2022-10-03T17:54:45;15.48;;;11.10;;
10226;SDS011;15634;48.766;2.272;2022-10-03T17:57:15;17.83;;;11.32;;
10226;SDS011;15634;48.766;2.272;2022-10-03T17:59:46;19.20;;;11.15;;
10226;SDS011;15634;48.766;2.272;2022-10-03T18:02:22;19.00;;;10.70;;
10226;SDS011;15634;48.766;2.272;2022-10-03T18:04:55;19.70;;;11.48;;
10226;SDS011;15634;48.766;2.272;2022-10-03T18:07:25;18.60;;;12.70;;
10226;SDS011;15634;48.766;2.272;2022-10-03T18:09:53;20.50;;;11.98;;
10226;SDS011;15634;48.766;2.272;2022-10-03T18:12:25;16.35;;;12.32;;
10226;SDS011;15634;48.766;2.272;2022-10-03T18:15:01;18.23;;;12.70;;
10226;SDS011;15634;48.766;2.272;2022-10-03T18:17:45;20.73;;;14.45;;
10226;SDS011;15634;48.766;2.272;2022-10-03T18:20:18;24.13;;;14.77;;
10226;SDS011;15634;48.766;2.272;2022-10-03T18:22:53;22.02;;;12.70;;
10226;SDS011;15634;48.766;2.272;2022-10-03T18:25:25;18.73;;;11.85;;
10226;SDS011;15634;48.766;2.272;2022-10-03T18:28:15;20.00;;;11.45;;
10226;SDS011;15634;48.766;2.272;2022-10-03T18:30:47;19.70;;;12.48;;